sensor_id;sensor_type;location;lat;lon;timestamp;P1;durP1;ratioP1;P2;durP2;ratioP2
16800;SDS011;8518;53.236;10.384;2023-03-02T00:05:09;19.03;;;9.23;;
16800;SDS011;8518;53.236;10.384;2023-03-02T00:07:38;15.47;;;9.87;;
16800;SDS011;8518;53.236;10.384;2023-03-02T00:10:04;19.47;;;9.60;;
16800;SDS011;8518;53.236;10.384;2023-03-02T00:15:52;17.53;;;10.40;;
16800;SDS011;8518;53.236;10.384;2023-03-02T00:18:17;34.47;;;11.43;;
16800;SDS011;8518;53.236;10.384;2023-03-02T00:20:43;14.90;;;9.17;;
16800;SDS011;8518;53.236;10.384;2023-03-02T00:26:32;19.33;;;9.70;;
16800;SDS011;8518;53.236;10.384;2023-03-02T00:32:20;14.83;;;10.50;;
16800;SDS011;8518;53.236;10.384;2023-03-02T00:34:46;33.50;;;9.97;;
16800;SDS011;8518;53.236;10.384;2023-03-02T00:37:11;18.00;;;9.00;;
16800;SDS011;8518;53.236;10.384;2023-03-02T00:39:37;26.27;;;10.50;;
16800;SDS011;8518;53.236;10.384;2023-03-02T00:45:06;15.47;;;8.73;;
16800;SDS011;8518;53.236;10.384;2023-03-02T00:47:35;18.37;;;9.17;;
16800;SDS011;8518;53.236;10.384;2023-03-02T00:50:02;19.17;;;9.43;;
16800;SDS011;8518;53.236;10.384;2023-03-02T00:55:53;15.23;;;8.57;;
16800;SDS011;8518;53.236;10.384;2023-03-02T00:58:19;12.67;;;8.23;;
16800;SDS011;8518;53.236;10.384;2023-03-02T01:00:45;35.77;;;9.27;;
16800;SDS011;8518;53.236;10.384;2023-03-02T01:06:34;14.00;;;8.37;;
16800;SDS011;8518;53.236;10.384;2023-03-02T01:12:21;18.30;;;8.10;;
16800;SDS011;8518;53.236;10.384;2023-03-02T01:14:50;17.13;;;9.13;;
16800;SDS011;8518;53.236;10.384;2023-03-02T01:17:16;12.67;;;8.60;;
16800;SDS011;8518;53.236;10.384;2023-03-02T01:19:46;17.63;;;8.77;;
16800;SDS011;8518;53.236;10.384;2023-03-02T01:25:34;18.90;;;8.80;;
16800;SDS011;8518;53.236;10.384;2023-03-02T01:31:25;12.33;;;8.83;;
16800;SDS011;8518;53.236;10.384;2023-03-02T01:33:52;20.23;;;8.97;;
16800;SDS011;8518;53.236;10.384;2023-03-02T01:36:18;38.67;;;9.87;;
16800;SDS011;8518;53.236;10.384;2023-03-02T01:38:44;12.83;;;8.67;;
16800;SDS011;8518;53.236;10.384;2023-03-02T01:41:10;38.60;;;10.07;;
16800;SDS011;8518;53.236;10.384;2023-03-02T01:46:58;13.33;;;8.50;;
16800;SDS011;8518;53.236;10.384;2023-03-02T01:52:47;26.40;;;8.80;;
16800;SDS011;8518;53.236;10.384;2023-03-02T01:55:15;15.97;;;8.60;;
16800;SDS011;8518;53.236;10.384;2023-03-02T01:57:46;12.97;;;8.33;;
16800;SDS011;8518;53.236;10.384;2023-03-02T02:00:15;16.10;;;8.70;;
16800;SDS011;8518;53.236;10.384;2023-03-02T02:06:18;29.20;;;8.97;;
16800;SDS011;8518;53.236;10.384;2023-03-02T02:08:45;15.10;;;8.57;;
16800;SDS011;8518;53.236;10.384;2023-03-02T02:11:12;33.77;;;8.87;;
16800;SDS011;8518;53.236;10.384;2023-03-02T02:17:00;11.90;;;7.80;;
16800;SDS011;8518;53.236;10.384;2023-03-02T02:25:55;13.07;;;7.93;;
16800;SDS011;8518;53.236;10.384;2023-03-02T02:28:32;13.97;;;8.17;;
16800;SDS011;8518;53.236;10.384;2023-03-02T02:37:06;13.70;;;7.67;;
16800;SDS011;8518;53.236;10.384;2023-03-02T02:39:37;38.63;;;9.17;;
16800;SDS011;8518;53.236;10.384;2023-03-02T02:45:29;44.30;;;9.40;;
16800;SDS011;8518;53.236;10.384;2023-03-02T02:47:56;21.47;;;8.70;;
16800;SDS011;8518;53.236;10.384;2023-03-02T02:50:27;16.67;;;8.80;;
16800;SDS011;8518;53.236;10.384;2023-03-02T02:56:18;15.77;;;8.00;;
16800;SDS011;8518;53.236;10.384;2023-03-02T02:58:47;12.60;;;8.80;;
16800;SDS011;8518;53.236;10.384;2023-03-02T03:01:17;13.60;;;8.93;;
16800;SDS011;8518;53.236;10.384;2023-03-02T03:03:50;11.23;;;7.87;;
16800;SDS011;8518;53.236;10.384;2023-03-02T03:06:21;14.03;;;8.57;;
16800;SDS011;8518;53.236;10.384;2023-03-02T03:08:55;24.93;;;9.00;;
16800;SDS011;8518;53.236;10.384;2023-03-02T03:11:24;15.23;;;7.90;;
16800;SDS011;8518;53.236;10.384;2023-03-02T03:13:57;10.37;;;7.30;;
16800;SDS011;8518;53.236;10.384;2023-03-02T03:16:25;17.67;;;8.10;;
16800;SDS011;8518;53.236;10.384;2023-03-02T03:18:52;11.27;;;7.93;;
16800;SDS011;8518;53.236;10.384;2023-03-02T03:21:20;11.57;;;7.93;;
16800;SDS011;8518;53.236;10.384;2023-03-02T03:27:09;13.13;;;8.57;;
16800;SDS011;8518;53.236;10.384;2023-03-02T03:29:41;15.07;;;8.80;;
16800;SDS011;8518;53.236;10.384;2023-03-02T03:35:31;12.60;;;8.27;;
16800;SDS011;8518;53.236;10.384;2023-03-02T03:37:56;14.30;;;8.63;;
16800;SDS011;8518;53.236;10.384;2023-03-02T03:40:22;18.63;;;9.30;;
16800;SDS011;8518;53.236;10.384;2023-03-02T03:46:10;13.53;;;8.00;;
16800;SDS011;8518;53.236;10.384;2023-03-02T03:51:58;14.20;;;8.00;;
16800;SDS011;8518;53.236;10.384;2023-03-02T03:54:23;16.27;;;8.00;;
16800;SDS011;8518;53.236;10.384;2023-03-02T03:56:49;12.07;;;7.57;;
16800;SDS011;8518;53.236;10.384;2023-03-02T03:59:16;11.27;;;7.77;;
16800;SDS011;8518;53.236;10.384;2023-03-02T04:01:48;10.37;;;7.50;;
16800;SDS011;8518;53.236;10.384;2023-03-02T04:04:20;10.37;;;7.77;;
16800;SDS011;8518;53.236;10.384;2023-03-02T04:06:48;19.03;;;8.60;;
16800;SDS011;8518;53.236;10.384;2023-03-02T04:09:14;11.60;;;8.30;;
16800;SDS011;8518;53.236;10.384;2023-03-02T04:11:43;13.47;;;7.53;;
16800;SDS011;8518;53.236;10.384;2023-03-02T04:14:13;13.60;;;8.70;;
16800;SDS011;8518;53.236;10.384;2023-03-02T04:16:40;10.20;;;7.40;;
16800;SDS011;8518;53.236;10.384;2023-03-02T04:19:07;11.07;;;8.50;;
16800;SDS011;8518;53.236;10.384;2023-03-02T04:21:33;12.37;;;8.73;;
16800;SDS011;8518;53.236;10.384;2023-03-02T04:24:03;11.80;;;8.03;;
16800;SDS011;8518;53.236;10.384;2023-03-02T04:26:29;14.80;;;7.70;;
16800;SDS011;8518;53.236;10.384;2023-03-02T04:28:55;11.20;;;7.80;;
16800;SDS011;8518;53.236;10.384;2023-03-02T04:31:21;13.80;;;8.60;;
16800;SDS011;8518;53.236;10.384;2023-03-02T04:37:08;11.77;;;8.07;;
16800;SDS011;8518;53.236;10.384;2023-03-02T04:39:34;13.53;;;8.77;;
16800;SDS011;8518;53.236;10.384;2023-03-02T04:45:22;16.83;;;8.63;;
16800;SDS011;8518;53.236;10.384;2023-03-02T04:47:47;18.07;;;9.30;;
16800;SDS011;8518;53.236;10.384;2023-03-02T04:50:13;18.80;;;9.87;;
16800;SDS011;8518;53.236;10.384;2023-03-02T04:56:02;16.33;;;9.33;;
16800;SDS011;8518;53.236;10.384;2023-03-02T04:58:27;21.50;;;9.57;;
16800;SDS011;8518;53.236;10.384;2023-03-02T05:00:53;16.27;;;9.60;;
16800;SDS011;8518;53.236;10.384;2023-03-02T05:06:47;15.27;;;9.40;;
16800;SDS011;8518;53.236;10.384;2023-03-02T05:09:15;14.20;;;8.73;;
16800;SDS011;8518;53.236;10.384;2023-03-02T05:11:41;13.20;;;9.33;;
16800;SDS011;8518;53.236;10.384;2023-03-02T05:14:07;15.27;;;9.60;;
16800;SDS011;8518;53.236;10.384;2023-03-02T05:16:37;17.27;;;9.57;;
16800;SDS011;8518;53.236;10.384;2023-03-02T05:19:06;22.47;;;10.73;;
16800;SDS011;8518;53.236;10.384;2023-03-02T05:21:33;15.87;;;9.03;;
16800;SDS011;8518;53.236;10.384;2023-03-02T05:24:02;21.97;;;10.67;;
16800;SDS011;8518;53.236;10.384;2023-03-02T05:26:28;19.77;;;10.20;;
16800;SDS011;8518;53.236;10.384;2023-03-02T05:28:54;25.87;;;10.40;;
16800;SDS011;8518;53.236;10.384;2023-03-02T05:31:30;38.63;;;10.17;;
16800;SDS011;8518;53.236;10.384;2023-03-02T05:34:02;15.83;;;8.73;;
16800;SDS011;8518;53.236;10.384;2023-03-02T05:36:29;14.67;;;9.03;;
16800;SDS011;8518;53.236;10.384;2023-03-02T05:38:54;14.60;;;9.07;;
16800;SDS011;8518;53.236;10.384;2023-03-02T05:41:20;31.13;;;10.30;;
16800;SDS011;8518;53.236;10.384;2023-03-02T05:47:08;22.40;;;9.23;;
16800;SDS011;8518;53.236;10.384;2023-03-02T05:52:56;16.57;;;8.60;;
16800;SDS011;8518;53.236;10.384;2023-03-02T05:55:24;17.83;;;9.50;;
16800;SDS011;8518;53.236;10.384;2023-03-02T05:57:50;15.67;;;9.50;;
16800;SDS011;8518;53.236;10.384;2023-03-02T06:00:17;14.10;;;9.73;;
16800;SDS011;8518;53.236;10.384;2023-03-02T06:06:05;13.50;;;9.30;;
16800;SDS011;8518;53.236;10.384;2023-03-02T06:08:31;21.10;;;9.43;;
16800;SDS011;8518;53.236;10.384;2023-03-02T06:11:04;17.40;;;8.73;;
16800;SDS011;8518;53.236;10.384;2023-03-02T06:16:53;15.27;;;8.97;;
16800;SDS011;8518;53.236;10.384;2023-03-02T06:19:18;13.60;;;8.87;;
16800;SDS011;8518;53.236;10.384;2023-03-02T06:21:44;18.90;;;8.63;;
16800;SDS011;8518;53.236;10.384;2023-03-02T06:24:10;18.50;;;8.93;;
16800;SDS011;8518;53.236;10.384;2023-03-02T06:26:35;17.47;;;9.47;;
16800;SDS011;8518;53.236;10.384;2023-03-02T06:29:03;15.17;;;8.03;;
16800;SDS011;8518;53.236;10.384;2023-03-02T06:31:30;19.10;;;8.10;;
16800;SDS011;8518;53.236;10.384;2023-03-02T06:33:58;16.67;;;9.00;;
16800;SDS011;8518;53.236;10.384;2023-03-02T06:36:24;18.63;;;8.90;;
16800;SDS011;8518;53.236;10.384;2023-03-02T06:38:53;17.30;;;8.47;;
16800;SDS011;8518;53.236;10.384;2023-03-02T06:41:22;15.20;;;8.60;;
16800;SDS011;8518;53.236;10.384;2023-03-02T06:43:57;19.73;;;8.23;;
16800;SDS011;8518;53.236;10.384;2023-03-02T06:46:26;15.13;;;7.60;;
16800;SDS011;8518;53.236;10.384;2023-03-02T06:48:56;12.83;;;7.87;;
16800;SDS011;8518;53.236;10.384;2023-03-02T06:51:21;11.97;;;8.00;;
16800;SDS011;8518;53.236;10.384;2023-03-02T06:57:09;17.20;;;8.13;;
16800;SDS011;8518;53.236;10.384;2023-03-02T06:59:35;17.40;;;7.07;;
16800;SDS011;8518;53.236;10.384;2023-03-02T07:05:23;18.57;;;7.53;;
16800;SDS011;8518;53.236;10.384;2023-03-02T07:11:11;13.27;;;8.87;;
16800;SDS011;8518;53.236;10.384;2023-03-02T07:17:02;13.20;;;8.37;;
16800;SDS011;8518;53.236;10.384;2023-03-02T07:19:28;14.13;;;8.43;;
16800;SDS011;8518;53.236;10.384;2023-03-02T07:25:17;14.63;;;8.50;;
16800;SDS011;8518;53.236;10.384;2023-03-02T07:27:46;17.87;;;9.87;;
16800;SDS011;8518;53.236;10.384;2023-03-02T07:30:12;18.63;;;8.80;;
16800;SDS011;8518;53.236;10.384;2023-03-02T07:36:01;17.23;;;8.70;;
16800;SDS011;8518;53.236;10.384;2023-03-02T07:38:27;21.03;;;9.73;;
16800;SDS011;8518;53.236;10.384;2023-03-02T07:40:53;20.93;;;10.37;;
16800;SDS011;8518;53.236;10.384;2023-03-02T07:46:44;20.53;;;8.93;;
16800;SDS011;8518;53.236;10.384;2023-03-02T07:49:10;14.17;;;9.27;;
16800;SDS011;8518;53.236;10.384;2023-03-02T07:51:39;17.30;;;9.47;;
16800;SDS011;8518;53.236;10.384;2023-03-02T07:54:08;15.60;;;8.93;;
16800;SDS011;8518;53.236;10.384;2023-03-02T07:56:33;36.60;;;9.93;;
16800;SDS011;8518;53.236;10.384;2023-03-02T07:58:59;18.53;;;9.33;;
16800;SDS011;8518;53.236;10.384;2023-03-02T08:01:25;15.00;;;9.10;;
16800;SDS011;8518;53.236;10.384;2023-03-02T08:03:50;17.30;;;9.10;;
16800;SDS011;8518;53.236;10.384;2023-03-02T08:06:19;31.07;;;10.23;;
16800;SDS011;8518;53.236;10.384;2023-03-02T08:08:46;27.37;;;8.93;;
16800;SDS011;8518;53.236;10.384;2023-03-02T08:11:13;30.40;;;9.40;;
16800;SDS011;8518;53.236;10.384;2023-03-02T08:17:04;12.60;;;8.47;;
16800;SDS011;8518;53.236;10.384;2023-03-02T08:19:31;14.73;;;9.50;;
16800;SDS011;8518;53.236;10.384;2023-03-02T08:25:19;20.30;;;10.40;;
16800;SDS011;8518;53.236;10.384;2023-03-02T08:31:08;13.67;;;9.70;;
16800;SDS011;8518;53.236;10.384;2023-03-02T08:36:56;15.57;;;9.43;;
16800;SDS011;8518;53.236;10.384;2023-03-02T08:39:24;19.83;;;9.93;;
16800;SDS011;8518;53.236;10.384;2023-03-02T08:45:16;20.03;;;9.40;;
16800;SDS011;8518;53.236;10.384;2023-03-02T08:47:43;22.77;;;9.63;;
16800;SDS011;8518;53.236;10.384;2023-03-02T08:50:09;16.53;;;9.40;;
16800;SDS011;8518;53.236;10.384;2023-03-02T08:55:57;14.77;;;8.80;;
16800;SDS011;8518;53.236;10.384;2023-03-02T08:58:22;12.37;;;8.27;;
16800;SDS011;8518;53.236;10.384;2023-03-02T09:00:48;13.63;;;9.13;;
16800;SDS011;8518;53.236;10.384;2023-03-02T09:06:40;13.73;;;9.07;;
16800;SDS011;8518;53.236;10.384;2023-03-02T09:09:07;18.53;;;10.20;;
16800;SDS011;8518;53.236;10.384;2023-03-02T09:11:34;14.50;;;9.40;;
16800;SDS011;8518;53.236;10.384;2023-03-02T09:14:00;15.80;;;10.27;;
16800;SDS011;8518;53.236;10.384;2023-03-02T09:16:26;17.50;;;10.00;;
16800;SDS011;8518;53.236;10.384;2023-03-02T09:18:52;12.70;;;9.07;;
16800;SDS011;8518;53.236;10.384;2023-03-02T09:21:18;17.73;;;9.90;;
16800;SDS011;8518;53.236;10.384;2023-03-02T09:27:06;12.87;;;8.93;;
16800;SDS011;8518;53.236;10.384;2023-03-02T09:32:54;14.20;;;9.80;;
16800;SDS011;8518;53.236;10.384;2023-03-02T09:35:20;14.13;;;9.87;;
16800;SDS011;8518;53.236;10.384;2023-03-02T09:37:46;14.50;;;9.53;;
16800;SDS011;8518;53.236;10.384;2023-03-02T09:40:14;18.37;;;9.47;;
16800;SDS011;8518;53.236;10.384;2023-03-02T09:55:35;12.80;;;9.33;;
16800;SDS011;8518;53.236;10.384;2023-03-02T09:58:05;12.33;;;8.90;;
16800;SDS011;8518;53.236;10.384;2023-03-02T10:00:37;13.30;;;8.63;;
16800;SDS011;8518;53.236;10.384;2023-03-02T10:06:28;14.07;;;9.17;;
16800;SDS011;8518;53.236;10.384;2023-03-02T10:08:54;11.20;;;8.53;;
16800;SDS011;8518;53.236;10.384;2023-03-02T10:14:14;13.33;;;9.47;;
16800;SDS011;8518;53.236;10.384;2023-03-02T10:16:51;13.50;;;10.00;;
16800;SDS011;8518;53.236;10.384;2023-03-02T10:19:43;14.63;;;9.90;;
16800;SDS011;8518;53.236;10.384;2023-03-02T10:25:42;13.93;;;10.13;;
16800;SDS011;8518;53.236;10.384;2023-03-02T10:28:39;15.50;;;9.33;;
16800;SDS011;8518;53.236;10.384;2023-03-02T10:31:14;12.50;;;9.13;;
16800;SDS011;8518;53.236;10.384;2023-03-02T10:33:49;16.53;;;10.13;;
16800;SDS011;8518;53.236;10.384;2023-03-02T10:36:25;15.93;;;9.80;;
16800;SDS011;8518;53.236;10.384;2023-03-02T10:38:54;13.77;;;9.03;;
16800;SDS011;8518;53.236;10.384;2023-03-02T10:41:22;12.93;;;8.87;;
16800;SDS011;8518;53.236;10.384;2023-03-02T10:44:05;11.83;;;8.70;;
16800;SDS011;8518;53.236;10.384;2023-03-02T10:46:40;11.97;;;9.00;;
16800;SDS011;8518;53.236;10.384;2023-03-02T10:49:24;10.60;;;7.97;;
16800;SDS011;8518;53.236;10.384;2023-03-02T10:55:14;11.10;;;7.80;;
16800;SDS011;8518;53.236;10.384;2023-03-02T10:57:41;10.90;;;8.20;;
16800;SDS011;8518;53.236;10.384;2023-03-02T11:00:20;12.33;;;8.90;;
16800;SDS011;8518;53.236;10.384;2023-03-02T11:06:19;12.00;;;8.73;;
16800;SDS011;8518;53.236;10.384;2023-03-02T11:08:56;13.00;;;8.10;;
16800;SDS011;8518;53.236;10.384;2023-03-02T11:11:23;11.03;;;8.70;;
16800;SDS011;8518;53.236;10.384;2023-03-02T11:13:49;13.63;;;9.37;;
16800;SDS011;8518;53.236;10.384;2023-03-02T11:18:47;13.33;;;9.57;;
16800;SDS011;8518;53.236;10.384;2023-03-02T11:21:22;13.13;;;9.77;;
16800;SDS011;8518;53.236;10.384;2023-03-02T11:24:03;12.07;;;9.00;;
16800;SDS011;8518;53.236;10.384;2023-03-02T11:26:38;11.17;;;8.50;;
16800;SDS011;8518;53.236;10.384;2023-03-02T11:29:48;10.90;;;8.80;;
16800;SDS011;8518;53.236;10.384;2023-03-02T11:35:42;14.60;;;9.43;;
16800;SDS011;8518;53.236;10.384;2023-03-02T11:38:29;12.90;;;9.10;;
16800;SDS011;8518;53.236;10.384;2023-03-02T11:41:02;14.43;;;10.43;;
16800;SDS011;8518;53.236;10.384;2023-03-02T11:47:04;15.27;;;10.30;;
16800;SDS011;8518;53.236;10.384;2023-03-02T11:52:56;14.30;;;10.93;;
16800;SDS011;8518;53.236;10.384;2023-03-02T11:55:25;15.97;;;11.27;;
16800;SDS011;8518;53.236;10.384;2023-03-02T11:57:54;16.13;;;11.20;;
16800;SDS011;8518;53.236;10.384;2023-03-02T12:00:36;16.73;;;11.47;;
16800;SDS011;8518;53.236;10.384;2023-03-02T12:06:27;16.03;;;11.13;;
16800;SDS011;8518;53.236;10.384;2023-03-02T12:09:07;14.87;;;10.87;;
16800;SDS011;8518;53.236;10.384;2023-03-02T12:21:08;16.97;;;10.87;;
16800;SDS011;8518;53.236;10.384;2023-03-02T12:29:36;15.10;;;11.00;;
16800;SDS011;8518;53.236;10.384;2023-03-02T12:35:31;16.77;;;10.30;;
16800;SDS011;8518;53.236;10.384;2023-03-02T12:41:21;16.10;;;10.70;;
16800;SDS011;8518;53.236;10.384;2023-03-02T12:44:05;17.17;;;11.17;;
16800;SDS011;8518;53.236;10.384;2023-03-02T12:46:52;16.57;;;11.40;;
16800;SDS011;8518;53.236;10.384;2023-03-02T12:55:19;15.57;;;10.53;;
16800;SDS011;8518;53.236;10.384;2023-03-02T12:57:52;14.20;;;10.80;;
16800;SDS011;8518;53.236;10.384;2023-03-02T13:00:24;15.80;;;10.73;;
16800;SDS011;8518;53.236;10.384;2023-03-02T13:06:24;14.50;;;9.90;;
16800;SDS011;8518;53.236;10.384;2023-03-02T13:12:15;16.17;;;10.87;;
16800;SDS011;8518;53.236;10.384;2023-03-02T13:14:42;15.37;;;10.77;;
16800;SDS011;8518;53.236;10.384;2023-03-02T13:17:19;16.07;;;11.37;;
16800;SDS011;8518;53.236;10.384;2023-03-02T13:20:02;16.33;;;11.87;;
16800;SDS011;8518;53.236;10.384;2023-03-02T13:25:53;18.47;;;11.13;;
16800;SDS011;8518;53.236;10.384;2023-03-02T13:28:23;19.23;;;12.40;;
16800;SDS011;8518;53.236;10.384;2023-03-02T13:31:04;18.70;;;11.70;;
16800;SDS011;8518;53.236;10.384;2023-03-02T13:36:53;15.90;;;11.20;;
16800;SDS011;8518;53.236;10.384;2023-03-02T13:39:27;15.20;;;11.23;;
16800;SDS011;8518;53.236;10.384;2023-03-02T13:45:27;17.77;;;12.10;;
16800;SDS011;8518;53.236;10.384;2023-03-02T13:51:17;16.17;;;11.27;;
16800;SDS011;8518;53.236;10.384;2023-03-02T13:57:09;16.40;;;11.70;;
16800;SDS011;8518;53.236;10.384;2023-03-02T13:59:41;18.30;;;12.60;;
16800;SDS011;8518;53.236;10.384;2023-03-02T14:05:28;18.33;;;12.10;;
16800;SDS011;8518;53.236;10.384;2023-03-02T14:07:57;17.00;;;12.07;;
16800;SDS011;8518;53.236;10.384;2023-03-02T14:10:25;15.83;;;11.50;;
16800;SDS011;8518;53.236;10.384;2023-03-02T14:16:15;17.37;;;11.57;;
16800;SDS011;8518;53.236;10.384;2023-03-02T14:18:43;19.40;;;12.67;;
16800;SDS011;8518;53.236;10.384;2023-03-02T14:21:16;16.60;;;11.90;;
16800;SDS011;8518;53.236;10.384;2023-03-02T14:27:08;20.47;;;11.37;;
16800;SDS011;8518;53.236;10.384;2023-03-02T14:29:42;18.50;;;11.53;;
16800;SDS011;8518;53.236;10.384;2023-03-02T14:35:54;16.20;;;11.10;;
16800;SDS011;8518;53.236;10.384;2023-03-02T14:38:24;18.03;;;12.37;;
16800;SDS011;8518;53.236;10.384;2023-03-02T14:40:51;17.97;;;11.97;;
16800;SDS011;8518;53.236;10.384;2023-03-02T14:46:41;20.17;;;13.00;;
16800;SDS011;8518;53.236;10.384;2023-03-02T14:49:10;19.90;;;12.87;;
16800;SDS011;8518;53.236;10.384;2023-03-02T14:51:42;19.37;;;12.70;;
16800;SDS011;8518;53.236;10.384;2023-03-02T14:54:41;17.50;;;12.43;;
16800;SDS011;8518;53.236;10.384;2023-03-02T14:57:22;17.03;;;12.37;;
16800;SDS011;8518;53.236;10.384;2023-03-02T14:59:50;17.17;;;11.93;;
16800;SDS011;8518;53.236;10.384;2023-03-02T15:05:38;16.73;;;11.23;;
16800;SDS011;8518;53.236;10.384;2023-03-02T15:11:27;15.93;;;10.97;;
16800;SDS011;8518;53.236;10.384;2023-03-02T15:13:53;15.37;;;10.10;;
16800;SDS011;8518;53.236;10.384;2023-03-02T15:16:21;15.53;;;10.60;;
16800;SDS011;8518;53.236;10.384;2023-03-02T15:18:48;15.70;;;10.73;;
16800;SDS011;8518;53.236;10.384;2023-03-02T15:21:18;17.07;;;11.00;;
16800;SDS011;8518;53.236;10.384;2023-03-02T15:27:08;13.90;;;10.37;;
16800;SDS011;8518;53.236;10.384;2023-03-02T15:29:37;13.77;;;9.87;;
16800;SDS011;8518;53.236;10.384;2023-03-02T15:35:41;16.17;;;10.93;;
16800;SDS011;8518;53.236;10.384;2023-03-02T15:38:08;16.43;;;10.80;;
16800;SDS011;8518;53.236;10.384;2023-03-02T15:40:34;14.77;;;10.47;;
16800;SDS011;8518;53.236;10.384;2023-03-02T15:46:22;15.07;;;10.60;;
16800;SDS011;8518;53.236;10.384;2023-03-02T15:48:48;16.43;;;11.37;;
16800;SDS011;8518;53.236;10.384;2023-03-02T15:51:16;16.77;;;10.37;;
16800;SDS011;8518;53.236;10.384;2023-03-02T15:57:04;16.30;;;11.07;;
16800;SDS011;8518;53.236;10.384;2023-03-02T15:59:30;16.23;;;10.63;;
16800;SDS011;8518;53.236;10.384;2023-03-02T16:05:18;14.80;;;10.53;;
16800;SDS011;8518;53.236;10.384;2023-03-02T16:07:43;16.83;;;10.53;;
16800;SDS011;8518;53.236;10.384;2023-03-02T16:10:09;16.60;;;10.70;;
16800;SDS011;8518;53.236;10.384;2023-03-02T16:16:02;16.10;;;9.70;;
16800;SDS011;8518;53.236;10.384;2023-03-02T16:18:29;17.17;;;10.23;;
16800;SDS011;8518;53.236;10.384;2023-03-02T16:20:54;16.43;;;10.77;;
16800;SDS011;8518;53.236;10.384;2023-03-02T16:26:42;15.17;;;10.20;;
16800;SDS011;8518;53.236;10.384;2023-03-02T16:29:10;17.07;;;10.63;;
16800;SDS011;8518;53.236;10.384;2023-03-02T16:31:37;16.30;;;10.57;;
16800;SDS011;8518;53.236;10.384;2023-03-02T16:34:04;14.93;;;9.70;;
16800;SDS011;8518;53.236;10.384;2023-03-02T16:36:32;14.23;;;9.67;;
16800;SDS011;8518;53.236;10.384;2023-03-02T16:39:02;14.50;;;10.23;;
16800;SDS011;8518;53.236;10.384;2023-03-02T16:41:28;14.83;;;10.37;;
16800;SDS011;8518;53.236;10.384;2023-03-02T16:43:56;16.00;;;9.90;;
16800;SDS011;8518;53.236;10.384;2023-03-02T16:46:24;16.30;;;10.17;;
16800;SDS011;8518;53.236;10.384;2023-03-02T16:48:51;17.30;;;10.07;;
16800;SDS011;8518;53.236;10.384;2023-03-02T16:51:19;14.77;;;9.63;;
16800;SDS011;8518;53.236;10.384;2023-03-02T16:57:08;14.80;;;9.40;;
16800;SDS011;8518;53.236;10.384;2023-03-02T16:59:33;14.63;;;9.77;;
16800;SDS011;8518;53.236;10.384;2023-03-02T17:05:21;13.47;;;8.53;;
16800;SDS011;8518;53.236;10.384;2023-03-02T17:07:47;13.20;;;8.27;;
16800;SDS011;8518;53.236;10.384;2023-03-02T17:10:15;14.20;;;8.43;;
16800;SDS011;8518;53.236;10.384;2023-03-02T17:16:06;14.57;;;8.87;;
16800;SDS011;8518;53.236;10.384;2023-03-02T17:18:32;13.93;;;9.03;;
16800;SDS011;8518;53.236;10.384;2023-03-02T17:20:58;15.43;;;10.20;;
16800;SDS011;8518;53.236;10.384;2023-03-02T17:26:47;17.13;;;10.07;;
16800;SDS011;8518;53.236;10.384;2023-03-02T17:29:13;15.40;;;9.83;;
16800;SDS011;8518;53.236;10.384;2023-03-02T17:31:38;18.33;;;11.23;;
16800;SDS011;8518;53.236;10.384;2023-03-02T17:34:04;16.97;;;10.70;;
16800;SDS011;8518;53.236;10.384;2023-03-02T17:36:33;17.60;;;10.97;;
16800;SDS011;8518;53.236;10.384;2023-03-02T17:38:59;15.87;;;10.30;;
16800;SDS011;8518;53.236;10.384;2023-03-02T17:41:29;20.60;;;12.80;;
16800;SDS011;8518;53.236;10.384;2023-03-02T17:44:04;16.90;;;11.10;;
16800;SDS011;8518;53.236;10.384;2023-03-02T17:46:30;17.70;;;11.37;;
16800;SDS011;8518;53.236;10.384;2023-03-02T17:48:58;20.10;;;12.43;;
16800;SDS011;8518;53.236;10.384;2023-03-02T17:51:29;19.33;;;12.60;;
16800;SDS011;8518;53.236;10.384;2023-03-02T17:54:04;19.37;;;12.13;;
16800;SDS011;8518;53.236;10.384;2023-03-02T17:56:37;20.67;;;12.80;;
16800;SDS011;8518;53.236;10.384;2023-03-02T17:59:03;19.77;;;11.57;;
16800;SDS011;8518;53.236;10.384;2023-03-02T18:01:29;17.40;;;11.50;;
16800;SDS011;8518;53.236;10.384;2023-03-02T18:03:56;18.07;;;11.63;;
16800;SDS011;8518;53.236;10.384;2023-03-02T18:06:22;20.67;;;12.63;;
16800;SDS011;8518;53.236;10.384;2023-03-02T18:09:12;20.67;;;12.60;;
16800;SDS011;8518;53.236;10.384;2023-03-02T18:11:40;18.23;;;12.33;;
16800;SDS011;8518;53.236;10.384;2023-03-02T18:14:07;21.20;;;13.40;;
16800;SDS011;8518;53.236;10.384;2023-03-02T18:16:33;20.73;;;13.20;;
16800;SDS011;8518;53.236;10.384;2023-03-02T18:19:01;17.83;;;12.20;;
16800;SDS011;8518;53.236;10.384;2023-03-02T18:21:27;19.00;;;13.10;;
16800;SDS011;8518;53.236;10.384;2023-03-02T18:23:53;19.30;;;13.03;;
16800;SDS011;8518;53.236;10.384;2023-03-02T18:26:19;17.77;;;12.17;;
16800;SDS011;8518;53.236;10.384;2023-03-02T18:28:45;18.73;;;12.47;;
16800;SDS011;8518;53.236;10.384;2023-03-02T18:31:11;21.20;;;13.20;;
16800;SDS011;8518;53.236;10.384;2023-03-02T18:37:02;18.03;;;13.17;;
16800;SDS011;8518;53.236;10.384;2023-03-02T18:39:28;19.13;;;12.80;;
16800;SDS011;8518;53.236;10.384;2023-03-02T18:45:26;17.53;;;11.87;;
16800;SDS011;8518;53.236;10.384;2023-03-02T18:51:16;17.67;;;11.40;;
16800;SDS011;8518;53.236;10.384;2023-03-02T18:57:04;18.90;;;11.47;;
16800;SDS011;8518;53.236;10.384;2023-03-02T18:59:34;18.30;;;12.60;;
16800;SDS011;8518;53.236;10.384;2023-03-02T19:05:23;18.07;;;12.63;;
16800;SDS011;8518;53.236;10.384;2023-03-02T19:07:51;18.27;;;12.73;;
16800;SDS011;8518;53.236;10.384;2023-03-02T19:10:17;16.93;;;12.07;;
16800;SDS011;8518;53.236;10.384;2023-03-02T19:16:05;18.17;;;12.37;;
16800;SDS011;8518;53.236;10.384;2023-03-02T19:18:31;19.37;;;13.13;;
16800;SDS011;8518;53.236;10.384;2023-03-02T19:20:57;18.73;;;13.27;;
16800;SDS011;8518;53.236;10.384;2023-03-02T19:26:50;19.33;;;13.13;;
16800;SDS011;8518;53.236;10.384;2023-03-02T19:29:16;18.63;;;12.37;;
16800;SDS011;8518;53.236;10.384;2023-03-02T19:31:41;21.47;;;13.23;;
16800;SDS011;8518;53.236;10.384;2023-03-02T19:34:10;19.40;;;12.70;;
16800;SDS011;8518;53.236;10.384;2023-03-02T19:36:35;19.40;;;12.70;;
16800;SDS011;8518;53.236;10.384;2023-03-02T19:39:04;19.50;;;13.27;;
16800;SDS011;8518;53.236;10.384;2023-03-02T19:41:32;20.03;;;12.90;;
16800;SDS011;8518;53.236;10.384;2023-03-02T19:43:59;19.53;;;13.43;;
16800;SDS011;8518;53.236;10.384;2023-03-02T19:46:26;18.27;;;11.63;;
16800;SDS011;8518;53.236;10.384;2023-03-02T19:48:52;18.00;;;12.40;;
16800;SDS011;8518;53.236;10.384;2023-03-02T19:51:21;17.70;;;12.13;;
16800;SDS011;8518;53.236;10.384;2023-03-02T19:57:08;17.03;;;12.03;;
16800;SDS011;8518;53.236;10.384;2023-03-02T19:59:41;18.80;;;12.30;;
16800;SDS011;8518;53.236;10.384;2023-03-02T20:05:36;17.83;;;11.57;;
16800;SDS011;8518;53.236;10.384;2023-03-02T20:08:03;19.47;;;12.90;;
16800;SDS011;8518;53.236;10.384;2023-03-02T20:10:38;18.53;;;13.00;;
16800;SDS011;8518;53.236;10.384;2023-03-02T20:16:28;16.03;;;12.10;;
16800;SDS011;8518;53.236;10.384;2023-03-02T20:18:55;16.40;;;12.07;;
16800;SDS011;8518;53.236;10.384;2023-03-02T20:21:22;20.50;;;13.13;;
16800;SDS011;8518;53.236;10.384;2023-03-02T20:23:50;15.93;;;12.00;;
16800;SDS011;8518;53.236;10.384;2023-03-02T20:26:16;18.33;;;12.87;;
16800;SDS011;8518;53.236;10.384;2023-03-02T20:28:43;17.97;;;11.63;;
16800;SDS011;8518;53.236;10.384;2023-03-02T20:31:09;17.80;;;12.77;;